createdAt,value
2022-12-07T00:01:27.604Z,2.76
2022-12-07T00:03:58.103Z,2.77
2022-12-07T00:06:24.449Z,2.77
2022-12-07T00:08:50.777Z,2.79
2022-12-07T00:11:22.077Z,2.80
2022-12-07T00:13:53.515Z,2.82
2022-12-07T00:16:21.484Z,2.82
2022-12-07T00:18:47.943Z,2.81
2022-12-07T00:21:23.632Z,2.79
2022-12-07T00:23:51.728Z,2.78
2022-12-07T00:26:20.147Z,2.76
2022-12-07T00:28:51.902Z,2.71
2022-12-07T00:31:20.214Z,2.65
2022-12-07T00:33:47.378Z,2.60
2022-12-07T00:36:16.656Z,2.57
2022-12-07T00:38:43.464Z,2.56
2022-12-07T00:41:21.028Z,2.55
2022-12-07T00:43:48.793Z,2.55
2022-12-07T00:46:16.702Z,2.54
2022-12-07T00:48:43.840Z,2.53
2022-12-07T00:51:12.973Z,2.49
2022-12-07T00:53:41.884Z,2.46
2022-12-07T00:56:10.954Z,2.43
2022-12-07T00:58:37.444Z,2.46
2022-12-07T01:01:05.791Z,2.46
2022-12-07T01:03:32.635Z,2.48
2022-12-07T01:05:59.175Z,2.48
2022-12-07T01:08:26.895Z,2.46
2022-12-07T01:11:01.390Z,2.47
2022-12-07T01:13:29.175Z,2.47
2022-12-07T01:16:00.576Z,2.52
2022-12-07T01:18:28.965Z,2.56
2022-12-07T01:21:03.653Z,2.55
2022-12-07T01:23:31.324Z,2.55
2022-12-07T01:25:59.670Z,2.54
2022-12-07T01:28:27.486Z,2.56
2022-12-07T01:31:05.860Z,2.57
2022-12-07T01:33:37.984Z,2.56
2022-12-07T01:36:07.468Z,2.54
2022-12-07T01:38:34.522Z,2.54
2022-12-07T01:41:02.692Z,2.50
2022-12-07T01:43:31.394Z,2.49
2022-12-07T01:45:58.067Z,2.48
2022-12-07T01:48:44.770Z,2.44
2022-12-07T01:51:14.463Z,2.44
2022-12-07T01:53:46.358Z,2.42
2022-12-07T01:56:19.870Z,2.37
2022-12-07T01:58:46.375Z,2.36
2022-12-07T02:01:12.819Z,2.39
2022-12-07T02:03:42.520Z,2.39
2022-12-07T02:06:11.244Z,2.37
2022-12-07T02:08:38.008Z,2.38
2022-12-07T02:11:07.178Z,2.34
2022-12-07T02:13:36.338Z,2.34
2022-12-07T02:16:27.707Z,2.33
2022-12-07T02:19:22.763Z,2.35
2022-12-07T02:22:15.695Z,2.42
2022-12-07T02:24:56.382Z,2.48
2022-12-07T02:27:51.235Z,2.48
2022-12-07T02:30:23.044Z,2.48
2022-12-07T02:32:58.861Z,2.49
2022-12-07T02:35:29.753Z,2.51
2022-12-07T02:38:07.511Z,2.54
2022-12-07T02:40:48.878Z,2.56
2022-12-07T02:43:20.918Z,2.56
2022-12-07T02:45:49.395Z,2.52
2022-12-07T02:48:18.116Z,2.52
2022-12-07T02:50:52.878Z,2.53
2022-12-07T02:53:36.731Z,2.55
2022-12-07T02:56:37.828Z,2.57
2022-12-07T02:59:48.707Z,2.58
2022-12-07T03:02:30.198Z,2.59
2022-12-07T03:05:21.122Z,2.59
2022-12-07T03:08:16.458Z,2.58
2022-12-07T03:10:56.238Z,2.60
2022-12-07T03:14:00.861Z,2.66
2022-12-07T03:16:36.366Z,2.72
2022-12-07T03:19:14.065Z,2.74
2022-12-07T03:21:53.283Z,2.76
2022-12-07T03:24:22.792Z,2.75
2022-12-07T03:26:53.739Z,2.79
2022-12-07T03:29:31.330Z,2.80
2022-12-07T03:32:15.911Z,2.78
2022-12-07T03:35:01.532Z,2.74
2022-12-07T03:37:35.325Z,2.72
2022-12-07T03:40:15.863Z,2.68
2022-12-07T03:42:43.162Z,2.64
2022-12-07T03:45:10.212Z,2.58
2022-12-07T03:47:42.685Z,2.52
2022-12-07T03:50:20.062Z,2.47
2022-12-07T03:52:56.741Z,2.45
2022-12-07T03:55:32.081Z,2.44
2022-12-07T03:58:04.806Z,2.46
2022-12-07T04:00:31.761Z,2.45
2022-12-07T04:02:58.937Z,2.43
2022-12-07T04:05:25.854Z,2.40
2022-12-07T04:07:52.322Z,2.37
2022-12-07T04:10:19.073Z,2.40
2022-12-07T04:12:45.500Z,2.42
2022-12-07T04:15:11.951Z,2.45
2022-12-07T04:17:38.627Z,2.47
2022-12-07T04:20:06.402Z,2.48
2022-12-07T04:22:32.912Z,2.46
2022-12-07T04:24:59.330Z,2.48
2022-12-07T04:27:25.675Z,2.48
2022-12-07T04:29:52.027Z,2.45
2022-12-07T04:32:18.359Z,2.47
2022-12-07T04:34:44.724Z,2.46
2022-12-07T04:37:11.162Z,2.41
2022-12-07T04:39:37.858Z,2.36
2022-12-07T04:42:04.782Z,2.35
2022-12-07T04:44:31.396Z,2.36
2022-12-07T04:46:58.048Z,2.36
2022-12-07T04:49:25.586Z,2.36
2022-12-07T04:51:52.594Z,2.39
2022-12-07T04:54:19.020Z,2.45
2022-12-07T04:56:45.877Z,2.50
2022-12-07T04:59:13.342Z,2.54
2022-12-07T05:01:40.147Z,2.58
2022-12-07T05:04:07.212Z,2.56
2022-12-07T05:06:33.625Z,2.56
2022-12-07T05:09:00.043Z,2.53
2022-12-07T05:11:41.584Z,2.49
2022-12-07T05:14:10.329Z,2.45
2022-12-07T05:16:37.131Z,2.39
2022-12-07T05:19:03.963Z,2.34
2022-12-07T05:21:30.373Z,2.25
2022-12-07T05:23:56.921Z,2.20
2022-12-07T05:26:23.329Z,2.15
2022-12-07T05:28:54.321Z,2.10
2022-12-07T05:31:21.239Z,2.05
2022-12-07T05:33:47.845Z,2.03
2022-12-07T05:36:14.495Z,2.01
2022-12-07T05:38:41.027Z,1.98
2022-12-07T05:41:08.881Z,1.92
2022-12-07T05:43:35.237Z,1.89
2022-12-07T05:46:01.645Z,1.86
2022-12-07T05:48:28.087Z,1.82
2022-12-07T05:50:54.533Z,1.83
2022-12-07T05:53:23.179Z,1.82
2022-12-07T05:55:50.255Z,1.77
2022-12-07T05:58:35.390Z,1.79
2022-12-07T06:01:01.763Z,1.80
2022-12-07T06:03:28.193Z,1.78
2022-12-07T06:05:54.976Z,1.79
2022-12-07T06:08:21.626Z,1.80
2022-12-07T06:11:09.298Z,1.80
2022-12-07T06:13:35.663Z,1.79
2022-12-07T06:16:02.087Z,1.78
2022-12-07T06:18:28.484Z,1.76
2022-12-07T06:20:54.878Z,1.75
2022-12-07T06:23:21.320Z,1.74
2022-12-07T06:25:47.646Z,1.76
2022-12-07T06:28:13.970Z,1.77
2022-12-07T06:30:40.301Z,1.79
2022-12-07T06:33:07.270Z,1.79
2022-12-07T06:35:34.573Z,1.79
2022-12-07T06:38:00.906Z,1.78
2022-12-07T06:40:27.300Z,1.79
2022-12-07T06:42:53.660Z,1.79
2022-12-07T06:45:20.414Z,1.82
2022-12-07T06:47:47.405Z,1.82
2022-12-07T06:50:14.155Z,1.83
2022-12-07T06:52:40.497Z,1.79
2022-12-07T06:55:07.254Z,1.77
2022-12-07T06:57:33.580Z,1.74
2022-12-07T07:00:00.313Z,1.67
2022-12-07T07:02:27.208Z,1.60
2022-12-07T07:04:53.604Z,1.56
2022-12-07T07:07:19.979Z,1.52
2022-12-07T07:09:46.362Z,1.51
2022-12-07T07:12:12.669Z,1.46
2022-12-07T07:14:39.082Z,1.46
2022-12-07T07:17:05.541Z,1.44
2022-12-07T07:19:31.950Z,1.41
2022-12-07T07:21:58.249Z,1.41
2022-12-07T07:24:24.570Z,1.37
2022-12-07T07:26:50.955Z,1.31
2022-12-07T07:29:17.335Z,1.30
2022-12-07T07:31:43.805Z,1.29
2022-12-07T07:34:10.158Z,1.29
2022-12-07T07:36:36.545Z,1.28
2022-12-07T07:39:03.245Z,1.28
2022-12-07T07:41:29.632Z,1.28
2022-12-07T07:43:56.004Z,1.28
2022-12-07T07:46:22.427Z,1.27
2022-12-07T07:48:48.838Z,1.26
2022-12-07T07:51:15.370Z,1.25
2022-12-07T07:53:41.817Z,1.24
2022-12-07T07:56:08.298Z,1.22
2022-12-07T07:58:34.694Z,1.23
2022-12-07T08:01:06.316Z,1.24
2022-12-07T08:03:33.038Z,1.25
2022-12-07T08:05:59.519Z,1.26
2022-12-07T08:08:25.949Z,1.27
2022-12-07T08:10:52.343Z,1.27
2022-12-07T08:13:18.810Z,1.25
2022-12-07T08:15:47.367Z,1.22
2022-12-07T08:18:15.499Z,1.21
2022-12-07T08:20:42.753Z,1.26
2022-12-07T08:23:10.137Z,1.29
2022-12-07T08:25:36.763Z,1.40
2022-12-07T08:28:03.673Z,1.56
2022-12-07T08:30:30.946Z,1.77
2022-12-07T08:32:58.016Z,1.93
2022-12-07T08:35:25.006Z,2.05
2022-12-07T08:37:51.404Z,2.16
2022-12-07T08:40:19.740Z,2.39
2022-12-07T08:42:50.837Z,2.58
2022-12-07T08:45:24.995Z,2.67
2022-12-07T08:48:03.653Z,2.66
2022-12-07T08:50:30.438Z,2.68
2022-12-07T08:52:59.479Z,2.75
2022-12-07T08:55:26.733Z,2.84
2022-12-07T08:57:53.143Z,2.88
2022-12-07T09:00:19.756Z,2.91
2022-12-07T09:02:47.360Z,2.96
2022-12-07T09:05:16.889Z,2.97
2022-12-07T09:07:47.240Z,2.98
2022-12-07T09:10:13.709Z,2.98
2022-12-07T09:12:40.231Z,2.98
2022-12-07T09:15:07.085Z,3.01
2022-12-07T09:17:34.985Z,3.07
2022-12-07T09:20:02.423Z,3.11
2022-12-07T09:22:32.331Z,3.19
2022-12-07T09:24:59.745Z,3.35
2022-12-07T09:27:27.058Z,3.57
2022-12-07T09:29:53.796Z,3.71
2022-12-07T09:32:20.445Z,3.77
2022-12-07T09:34:46.945Z,3.81
2022-12-07T09:37:13.401Z,3.83
2022-12-07T09:39:44.632Z,3.82
2022-12-07T09:42:25.775Z,3.82
2022-12-07T09:44:52.194Z,3.88
2022-12-07T09:47:18.624Z,3.96
2022-12-07T09:49:45.032Z,4.05
2022-12-07T09:52:27.716Z,4.12
2022-12-07T09:54:54.297Z,4.16
2022-12-07T09:57:38.787Z,4.21
2022-12-07T10:00:12.587Z,4.20
2022-12-07T10:02:43.830Z,4.22
2022-12-07T10:05:23.505Z,4.26
2022-12-07T10:07:51.067Z,4.27
2022-12-07T10:10:32.687Z,4.27
2022-12-07T10:13:03.996Z,4.27
2022-12-07T10:15:56.258Z,4.26
2022-12-07T10:18:38.075Z,4.42
2022-12-07T10:21:14.383Z,4.70
2022-12-07T10:24:00.374Z,4.94
2022-12-07T10:26:35.809Z,5.23
2022-12-07T10:29:15.253Z,5.22
2022-12-07T10:31:42.880Z,5.10
2022-12-07T10:34:25.516Z,4.98
2022-12-07T10:36:54.115Z,4.90
2022-12-07T10:39:23.038Z,4.87
2022-12-07T10:42:00.197Z,4.94
2022-12-07T10:44:30.699Z,5.25
2022-12-07T10:47:11.449Z,5.48
2022-12-07T10:50:00.932Z,5.71
2022-12-07T10:52:39.866Z,5.84
2022-12-07T10:55:21.123Z,5.87
2022-12-07T10:58:05.204Z,5.66
2022-12-07T11:01:01.004Z,5.57
2022-12-07T11:03:54.698Z,5.59
2022-12-07T11:06:36.360Z,5.83
2022-12-07T11:10:07.442Z,6.04
2022-12-07T11:12:44.674Z,6.13
2022-12-07T11:15:23.222Z,6.21
2022-12-07T11:17:53.152Z,6.21
2022-12-07T11:20:50.841Z,6.16
2022-12-07T11:23:49.731Z,5.94
2022-12-07T11:26:26.391Z,5.78
2022-12-07T11:29:24.031Z,5.66
2022-12-07T11:32:13.487Z,5.55
2022-12-07T11:34:48.675Z,5.47
2022-12-07T11:37:19.746Z,5.35
2022-12-07T11:39:51.162Z,5.41
2022-12-07T11:42:23.679Z,5.81
2022-12-07T11:45:17.207Z,6.20
2022-12-07T11:47:48.546Z,6.40
2022-12-07T11:50:27.054Z,6.50
2022-12-07T11:53:01.118Z,6.56
2022-12-07T11:55:42.203Z,6.75
2022-12-07T11:58:35.000Z,6.94
2022-12-07T12:01:44.414Z,7.11
2022-12-07T12:04:10.730Z,7.31
2022-12-07T12:06:37.763Z,7.49
2022-12-07T12:09:41.943Z,7.61
2022-12-07T12:15:37.005Z,7.81
2022-12-07T12:18:43.355Z,7.80
2022-12-07T12:21:16.677Z,7.73
2022-12-07T12:23:49.453Z,7.59
2022-12-07T12:26:28.837Z,7.66
2022-12-07T12:28:56.964Z,7.75
2022-12-07T12:31:23.363Z,7.88
2022-12-07T12:33:52.505Z,7.92
2022-12-07T12:36:24.931Z,8.01
2022-12-07T12:39:00.169Z,7.93
2022-12-07T12:41:49.931Z,8.07
2022-12-07T12:44:16.263Z,8.20
2022-12-07T12:46:54.862Z,8.18
2022-12-07T12:49:21.170Z,8.25
2022-12-07T12:51:53.546Z,8.36
2022-12-07T12:54:31.901Z,8.29
2022-12-07T12:57:32.952Z,7.90
2022-12-07T13:00:04.610Z,7.60
2022-12-07T13:02:33.051Z,7.35
2022-12-07T13:05:07.122Z,7.01
2022-12-07T13:07:50.883Z,6.68
2022-12-07T13:10:33.530Z,6.56
2022-12-07T13:13:26.153Z,6.58
2022-12-07T13:16:15.246Z,6.53
2022-12-07T13:18:42.655Z,6.47
2022-12-07T13:21:08.983Z,6.38
2022-12-07T13:23:47.503Z,6.27
2022-12-07T13:26:38.036Z,6.15
2022-12-07T13:29:10.569Z,6.08
2022-12-07T13:31:57.954Z,5.97
2022-12-07T13:34:37.942Z,5.94
2022-12-07T13:37:22.508Z,6.00
2022-12-07T13:39:52.147Z,5.97
2022-12-07T13:42:36.087Z,5.86
2022-12-07T13:45:43.764Z,5.83
2022-12-07T13:48:17.531Z,5.86
2022-12-07T13:50:43.987Z,5.81
2022-12-07T13:53:14.999Z,5.79
2022-12-07T13:55:50.867Z,5.81
2022-12-07T13:58:20.840Z,5.86
2022-12-07T14:00:47.271Z,5.86
2022-12-07T14:03:13.561Z,5.84
2022-12-07T14:05:44.339Z,5.85
2022-12-07T14:08:11.179Z,5.86
2022-12-07T14:10:39.711Z,5.80
2022-12-07T14:13:27.795Z,5.81
2022-12-07T14:15:54.523Z,5.84
2022-12-07T14:18:29.763Z,5.85
2022-12-07T14:21:14.943Z,5.84
2022-12-07T14:23:41.648Z,5.83
2022-12-07T14:26:16.788Z,5.86
2022-12-07T14:28:44.481Z,5.85
2022-12-07T14:31:24.965Z,5.85
2022-12-07T14:34:00.206Z,5.88
2022-12-07T14:36:26.574Z,5.84
2022-12-07T14:38:55.189Z,5.82
2022-12-07T14:41:42.166Z,5.78
2022-12-07T14:44:23.891Z,5.77
2022-12-07T14:49:39.244Z,5.67
2022-12-07T14:54:55.579Z,5.59
2022-12-07T14:57:21.919Z,5.57
2022-12-07T14:59:48.288Z,5.53
2022-12-07T15:02:17.123Z,5.48
2022-12-07T15:04:43.609Z,5.42
2022-12-07T15:07:18.439Z,5.38
2022-12-07T15:09:44.863Z,5.37
2022-12-07T15:12:11.299Z,5.32
2022-12-07T15:14:37.712Z,5.28
2022-12-07T15:17:09.160Z,5.16
2022-12-07T15:19:36.326Z,5.06
2022-12-07T15:22:02.699Z,4.98
2022-12-07T15:24:29.132Z,4.97
2022-12-07T15:26:55.608Z,4.95
2022-12-07T15:29:23.587Z,4.92
2022-12-07T15:31:56.545Z,4.88
2022-12-07T15:34:31.893Z,4.86
2022-12-07T15:37:02.757Z,4.80
2022-12-07T15:39:29.212Z,4.77
2022-12-07T15:41:55.543Z,4.72
2022-12-07T15:44:40.167Z,4.69
2022-12-07T15:47:06.752Z,4.68
2022-12-07T15:49:33.643Z,4.68
2022-12-07T15:52:00.100Z,4.65
2022-12-07T15:54:28.722Z,4.62
2022-12-07T15:56:55.751Z,4.59
2022-12-07T15:59:22.619Z,4.56
2022-12-07T16:01:49.036Z,4.51
2022-12-07T16:04:15.397Z,4.52
2022-12-07T16:06:41.804Z,4.48
2022-12-07T16:09:08.381Z,4.44
2022-12-07T16:11:35.048Z,4.43
2022-12-07T16:14:01.487Z,4.42
2022-12-07T16:16:28.890Z,4.39
2022-12-07T16:18:55.691Z,4.35
2022-12-07T16:21:25.327Z,4.32
2022-12-07T16:23:52.594Z,4.30
2022-12-07T16:26:22.240Z,4.28
2022-12-07T16:28:53.197Z,4.24
2022-12-07T16:31:21.897Z,4.21
2022-12-07T16:33:49.990Z,4.20
2022-12-07T16:36:28.898Z,4.16
2022-12-07T16:39:04.336Z,4.12
2022-12-07T16:41:31.325Z,4.12
2022-12-07T16:43:57.748Z,4.11
2022-12-07T16:46:24.347Z,4.07
2022-12-07T16:48:50.752Z,4.01
2022-12-07T16:51:17.146Z,3.99
2022-12-07T16:53:43.820Z,3.95
2022-12-07T16:56:15.342Z,3.96
2022-12-07T16:58:43.479Z,3.96
2022-12-07T17:01:14.932Z,3.93
2022-12-07T17:03:41.429Z,3.87
2022-12-07T17:06:15.298Z,3.83
2022-12-07T17:08:42.235Z,3.80
2022-12-07T17:11:13.436Z,3.80
2022-12-07T17:13:59.377Z,3.76
2022-12-07T17:16:26.192Z,3.74
2022-12-07T17:18:52.963Z,3.72
2022-12-07T17:21:19.667Z,3.74
2022-12-07T17:23:46.916Z,3.73
2022-12-07T17:26:16.607Z,3.68
2022-12-07T17:28:43.336Z,3.66
2022-12-07T17:31:12.856Z,3.65
2022-12-07T17:33:39.335Z,3.67
2022-12-07T17:36:11.913Z,3.67
2022-12-07T17:38:38.421Z,3.68
2022-12-07T17:41:47.735Z,3.68
2022-12-07T17:44:19.204Z,3.71
2022-12-07T17:46:48.122Z,3.69
2022-12-07T17:49:14.693Z,3.71
2022-12-07T17:51:59.904Z,3.74
2022-12-07T17:54:26.508Z,3.76
2022-12-07T17:56:52.956Z,3.75
2022-12-07T17:59:19.456Z,3.70
2022-12-07T18:01:46.195Z,3.68
2022-12-07T18:04:12.880Z,3.66
2022-12-07T18:06:39.694Z,3.63
2022-12-07T18:09:07.459Z,3.62
2022-12-07T18:11:34.231Z,3.61
2022-12-07T18:14:00.839Z,3.61
2022-12-07T18:16:29.572Z,3.56
2022-12-07T18:18:59.766Z,3.53
2022-12-07T18:21:27.761Z,3.52
2022-12-07T18:23:56.971Z,3.51
2022-12-07T18:26:25.695Z,3.49
2022-12-07T18:28:52.783Z,3.47
2022-12-07T18:31:20.402Z,3.48
2022-12-07T18:33:48.341Z,3.48
2022-12-07T18:36:16.714Z,3.45
2022-12-07T18:38:44.486Z,3.41
2022-12-07T18:41:13.233Z,3.37
2022-12-07T18:43:39.702Z,3.34
2022-12-07T18:46:17.187Z,3.37
2022-12-07T18:48:44.266Z,3.37
2022-12-07T18:51:13.135Z,3.38
2022-12-07T18:53:39.706Z,3.37
2022-12-07T18:56:26.814Z,3.37
2022-12-07T18:59:14.346Z,3.32
2022-12-07T19:01:42.578Z,3.32
2022-12-07T19:04:10.699Z,3.30
2022-12-07T19:06:37.411Z,3.28
2022-12-07T19:09:04.577Z,3.30
2022-12-07T19:11:51.948Z,3.30
2022-12-07T19:14:33.027Z,3.27
2022-12-07T19:17:02.730Z,3.28
2022-12-07T19:19:38.046Z,3.27
2022-12-07T19:22:05.774Z,3.26
2022-12-07T19:24:32.382Z,3.28
2022-12-07T19:26:59.745Z,3.29
2022-12-07T19:29:28.723Z,3.27
2022-12-07T19:31:55.264Z,3.26
2022-12-07T19:34:21.760Z,3.29
2022-12-07T19:36:48.248Z,3.27
2022-12-07T19:39:15.837Z,3.26
2022-12-07T19:41:44.465Z,3.24
2022-12-07T19:44:23.355Z,3.20
2022-12-07T19:46:51.066Z,3.20
2022-12-07T19:49:19.440Z,3.16
2022-12-07T19:51:51.351Z,3.13
2022-12-07T19:54:20.222Z,3.15
2022-12-07T19:56:47.598Z,3.14
2022-12-07T19:59:15.014Z,3.12
2022-12-07T20:01:42.477Z,3.09
2022-12-07T20:04:12.866Z,3.10
2022-12-07T20:06:39.680Z,3.11
2022-12-07T20:09:06.193Z,3.14
2022-12-07T20:11:51.257Z,3.11
2022-12-07T20:14:17.691Z,3.14
2022-12-07T20:16:46.695Z,3.12
2022-12-07T20:19:14.382Z,3.09
2022-12-07T20:21:42.206Z,3.03
2022-12-07T20:24:12.048Z,3.01
2022-12-07T20:26:38.627Z,3.02
2022-12-07T20:29:14.766Z,2.99
2022-12-07T20:31:45.053Z,2.99
2022-12-07T20:34:11.606Z,2.98
2022-12-07T20:36:38.303Z,2.97
2022-12-07T20:39:05.731Z,2.98
2022-12-07T20:41:51.658Z,2.97
2022-12-07T20:44:18.874Z,2.91
2022-12-07T20:46:46.493Z,2.91
2022-12-07T20:49:15.243Z,2.89
2022-12-07T20:51:42.852Z,2.87
2022-12-07T20:54:09.613Z,2.84
2022-12-07T20:56:37.095Z,2.82
2022-12-07T20:59:09.602Z,2.79
2022-12-07T21:01:37.039Z,2.76
2022-12-07T21:04:03.667Z,2.74
2022-12-07T21:06:30.131Z,2.72
2022-12-07T21:08:58.684Z,2.73
2022-12-07T21:11:27.416Z,2.73
2022-12-07T21:13:53.966Z,2.69
2022-12-07T21:16:26.962Z,2.68
2022-12-07T21:18:59.992Z,2.67
2022-12-07T21:21:26.392Z,2.65
2022-12-07T21:24:01.570Z,2.65
2022-12-07T21:26:29.138Z,2.66
2022-12-07T21:28:56.937Z,2.61
2022-12-07T21:31:23.356Z,2.63
2022-12-07T21:33:50.325Z,2.60
2022-12-07T21:36:19.458Z,2.57
2022-12-07T21:38:45.934Z,2.56
2022-12-07T21:41:21.680Z,2.56
2022-12-07T21:43:48.415Z,2.54
2022-12-07T21:46:16.078Z,2.56
2022-12-07T21:48:43.370Z,2.56
2022-12-07T21:51:12.416Z,2.55
2022-12-07T21:53:40.638Z,2.54
2022-12-07T21:56:23.467Z,2.54
2022-12-07T21:58:51.393Z,2.56
2022-12-07T22:01:20.061Z,2.56
2022-12-07T22:03:47.242Z,2.54
2022-12-07T22:06:19.295Z,2.55
2022-12-07T22:08:45.831Z,2.57
2022-12-07T22:11:13.489Z,2.56
2022-12-07T22:14:03.141Z,2.58
2022-12-07T22:16:33.055Z,2.61
2022-12-07T22:18:59.402Z,2.63
2022-12-07T22:21:26.873Z,2.64
2022-12-07T22:23:53.730Z,2.65
2022-12-07T22:26:24.327Z,2.68
2022-12-07T22:28:51.184Z,2.69
2022-12-07T22:31:19.935Z,2.70
2022-12-07T22:33:46.812Z,2.69
2022-12-07T22:36:13.624Z,2.68
2022-12-07T22:38:41.132Z,2.68
2022-12-07T22:41:19.674Z,2.64
2022-12-07T22:43:46.077Z,2.64
2022-12-07T22:46:12.461Z,2.62
2022-12-07T22:48:38.835Z,2.62
2022-12-07T22:51:05.154Z,2.59
2022-12-07T22:53:31.671Z,2.56
2022-12-07T22:55:58.022Z,2.54
2022-12-07T22:58:24.451Z,2.53
2022-12-07T23:00:50.840Z,2.51
2022-12-07T23:03:17.222Z,2.50
2022-12-07T23:05:46.099Z,2.50
2022-12-07T23:08:12.997Z,2.49
2022-12-07T23:10:47.376Z,2.48
2022-12-07T23:13:35.084Z,2.48
2022-12-07T23:16:12.102Z,2.48
2022-12-07T23:18:40.634Z,2.49
2022-12-07T23:21:07.608Z,2.50
2022-12-07T23:23:34.765Z,2.49
2022-12-07T23:26:06.074Z,2.48
2022-12-07T23:28:32.735Z,2.51
2022-12-07T23:31:06.211Z,2.48
2022-12-07T23:33:33.367Z,2.47
2022-12-07T23:36:18.134Z,2.44
2022-12-07T23:38:46.263Z,2.45
2022-12-07T23:41:14.957Z,2.48
2022-12-07T23:43:42.142Z,2.48
2022-12-07T23:46:17.996Z,2.48
2022-12-07T23:48:45.127Z,2.52
2022-12-07T23:51:12.591Z,2.56
2022-12-07T23:53:42.174Z,2.59
2022-12-07T23:56:12.672Z,2.62
2022-12-07T23:58:39.236Z,2.64
